Time;durP1;ratioP1;P1;durP2;ratioP2;P2;SDS_P1;SDS_P2;PMS_P1;PMS_P2;Temp;Humidity;BMP_temperature;BMP_pressure;BME280_temperature;BME280_humidity;BME280_pressure;Samples;Min_cycle;Max_cycle;Signal;HPM_P1;HPM_P2
2022/01/02 00:00:13;;;;;;;4.73;3.30;;;;;;;7.03;79.91;100322.53;4986247;28;20241;-83
2022/01/02 00:02:52;;;;;;;4.33;3.30;;;;;;;7.04;79.72;100327.69;5004214;28;20223;-82
2022/01/02 00:05:32;;;;;;;4.33;3.50;;;;;;;6.97;80.30;100326.75;5005432;28;20245;-82
2022/01/02 00:08:07;;;;;;;4.23;3.57;;;;;;;6.97;80.20;100318.75;4988304;28;20227;-83
2022/01/02 00:10:45;;;;;;;4.70;3.40;;;;;;;6.94;80.46;100327.13;4955278;28;20310;-83
2022/01/02 00:13:29;;;;;;;4.83;3.80;;;;;;;6.89;80.35;100328.66;4988409;28;20231;-83
2022/01/02 00:16:03;;;;;;;4.00;3.60;;;;;;;6.80;80.59;100309.25;5004807;28;20207;-83
2022/01/02 00:18:51;;;;;;;4.80;3.70;;;;;;;6.82;80.45;100315.22;4987289;28;20286;-82
2022/01/02 00:21:29;;;;;;;5.07;3.90;;;;;;;6.79;80.10;100309.41;4990705;28;20303;-83
2022/01/02 00:24:05;;;;;;;5.37;3.87;;;;;;;6.78;79.87;100302.44;4973962;28;20199;-83
2022/01/02 00:26:44;;;;;;;4.10;3.70;;;;;;;6.62;80.20;100304.19;5005078;28;20310;-83
2022/01/02 00:29:12;;;;;;;3.93;3.53;;;;;;;6.58;79.77;100308.22;4987440;28;20235;-83
2022/01/02 00:31:42;;;;;;;4.13;3.73;;;;;;;6.56;80.91;100307.59;4987472;28;20238;-83
2022/01/02 00:34:18;;;;;;;4.47;3.63;;;;;;;6.41;80.47;100289.88;5006002;28;20199;-82
2022/01/02 00:36:45;;;;;;;4.30;3.87;;;;;;;6.31;80.61;100290.13;5004990;28;20701;-83
2022/01/02 00:39:12;;;;;;;4.30;3.90;;;;;;;6.29;80.80;100300.13;4978814;23;20227;-82
2022/01/02 00:41:54;;;;;;;4.33;3.93;;;;;;;6.21;80.74;100294.84;4970854;28;20207;-83
2022/01/02 00:44:33;;;;;;;4.17;3.50;;;;;;;6.20;80.82;100294.00;4977172;28;20263;-83
2022/01/02 00:47:08;;;;;;;5.40;3.90;;;;;;;6.14;80.72;100300.03;4988164;28;20307;-83
2022/01/02 00:49:40;;;;;;;4.60;3.93;;;;;;;6.05;81.62;100297.59;4971475;28;20231;-82
2022/01/02 00:52:19;;;;;;;4.70;4.03;;;;;;;5.95;81.98;100292.50;5003711;28;20235;-83
2022/01/02 00:55:17;;;;;;;5.23;4.10;;;;;;;5.96;82.33;100301.31;4986598;28;20223;-83
2022/01/02 00:57:58;;;;;;;4.50;3.43;;;;;;;5.90;81.89;100294.00;4988320;28;20240;-83
2022/01/02 01:00:29;;;;;;;7.47;4.20;;;;;;;5.86;81.81;100290.00;4970700;28;20310;-82
2022/01/02 01:03:00;;;;;;;4.83;4.00;;;;;;;5.84;81.57;100284.84;4986148;28;20234;-83
2022/01/02 01:05:46;;;;;;;5.37;3.73;;;;;;;5.80;82.19;100291.53;4970516;28;20298;-83
2022/01/02 01:08:13;;;;;;;5.27;3.83;;;;;;;5.70;82.51;100278.44;5004350;23;20230;-82
2022/01/02 01:10:44;;;;;;;5.10;3.80;;;;;;;5.66;82.36;100285.09;5003889;28;20262;-83
2022/01/02 01:13:15;;;;;;;4.87;3.53;;;;;;;5.63;81.83;100281.97;4987934;28;20239;-83
2022/01/02 01:15:44;;;;;;;3.40;3.10;;;;;;;5.57;82.57;100278.16;5004249;28;20234;-83
2022/01/02 01:18:12;;;;;;;4.17;3.50;;;;;;;5.57;82.28;100279.97;4987728;28;20223;-83
2022/01/02 01:21:02;;;;;;;5.27;3.77;;;;;;;5.56;82.10;100284.47;4986685;28;20302;-82
2022/01/02 01:23:29;;;;;;;3.63;3.23;;;;;;;5.54;82.71;100275.84;5005308;28;20258;-83
2022/01/02 01:26:07;;;;;;;5.63;3.43;;;;;;;5.46;82.62;100259.09;4971939;23;20260;-82
2022/01/02 01:28:34;;;;;;;4.20;3.57;;;;;;;5.47;82.63;100258.09;4967683;28;20291;-83
2022/01/02 01:31:02;;;;;;;5.33;3.90;;;;;;;5.47;82.95;100271.38;4951615;28;20216;-83
2022/01/02 01:33:30;;;;;;;3.83;3.30;;;;;;;5.42;82.79;100261.25;4952044;28;20256;-83
2022/01/02 01:35:57;;;;;;;3.50;3.13;;;;;;;5.42;83.52;100263.91;4967719;28;20349;-83
2022/01/02 01:38:25;;;;;;;5.50;3.33;;;;;;;5.43;83.51;100262.94;4983374;28;20315;-82
2022/01/02 01:41:21;;;;;;;5.00;3.23;;;;;;;5.43;83.46;100254.94;4951464;28;20659;-83
2022/01/02 01:46:38;;;;;;;5.07;3.77;;;;;;;5.42;83.50;100242.66;4954663;28;20299;-83
2022/01/02 01:49:37;;;;;;;4.23;3.63;;;;;;;5.41;83.86;100235.72;4951901;28;20228;-83
2022/01/02 01:52:08;;;;;;;4.83;3.60;;;;;;;5.43;83.50;100238.19;4937000;28;20228;-82
2022/01/02 01:54:36;;;;;;;5.00;3.70;;;;;;;5.39;83.53;100229.72;4943053;29;20661;-83
2022/01/02 01:57:03;;;;;;;4.13;3.60;;;;;;;5.43;83.03;100224.88;4929231;29;20217;-83
2022/01/02 01:59:38;;;;;;;4.40;3.80;;;;;;;5.44;83.12;100214.09;4915255;29;20689;-82
2022/01/02 02:02:07;;;;;;;4.60;3.70;;;;;;;5.33;83.29;100209.97;4898855;29;20647;-83
2022/01/02 02:04:36;;;;;;;3.83;3.40;;;;;;;5.40;83.29;100214.59;4913548;29;20284;-83
2022/01/02 02:07:03;;;;;;;3.87;3.40;;;;;;;5.39;83.29;100220.91;4912862;29;20280;-83
2022/01/02 02:09:42;;;;;;;3.80;3.23;;;;;;;5.39;83.22;100211.13;4912080;29;20237;-83
2022/01/02 02:12:14;;;;;;;4.30;3.47;;;;;;;5.35;82.42;100212.47;4913525;29;20720;-83
2022/01/02 02:14:45;;;;;;;3.93;3.53;;;;;;;5.30;83.25;100217.47;4928239;29;20225;-83
2022/01/02 02:17:16;;;;;;;3.60;3.30;;;;;;;5.27;83.09;100213.31;4915830;29;20312;-83
2022/01/02 02:19:42;;;;;;;3.87;3.47;;;;;;;5.26;82.86;100205.53;4914807;29;20268;-82
2022/01/02 02:22:12;;;;;;;4.10;3.50;;;;;;;5.23;83.41;100205.84;4913600;23;20303;-82
2022/01/02 02:24:40;;;;;;;3.70;3.30;;;;;;;5.09;83.64;100177.34;4991401;28;20303;-83
2022/01/02 02:27:10;;;;;;;5.40;3.40;;;;;;;5.16;83.93;100196.94;4992541;28;20219;-83
2022/01/02 02:29:37;;;;;;;3.50;3.20;;;;;;;5.11;83.66;100193.94;4990894;28;20285;-83
2022/01/02 02:32:04;;;;;;;4.00;3.50;;;;;;;5.12;83.92;100185.81;5007850;28;20242;-83
2022/01/02 02:34:32;;;;;;;5.40;3.47;;;;;;;5.09;83.56;100182.66;4991644;28;20227;-83
2022/01/02 02:36:58;;;;;;;3.90;3.33;;;;;;;4.98;84.01;100172.41;5008503;28;20250;-82
2022/01/02 02:39:27;;;;;;;3.67;3.37;;;;;;;4.95;84.08;100162.94;4991562;28;20219;-83
2022/01/02 02:41:54;;;;;;;4.63;3.60;;;;;;;4.94;84.46;100150.69;4992189;28;20211;-83
2022/01/02 02:44:36;;;;;;;3.67;3.07;;;;;;;4.96;84.76;100158.47;4992109;28;20234;-83
2022/01/02 02:49:55;;;;;;;4.07;3.27;;;;;;;4.90;84.92;100151.19;5012518;28;20229;-83
2022/01/02 02:52:45;;;;;;;4.10;3.23;;;;;;;4.99;85.08;100164.28;5006686;28;20230;-83
2022/01/02 02:55:13;;;;;;;3.67;3.07;;;;;;;4.92;84.64;100167.78;5006255;28;20223;-83
2022/01/02 02:57:41;;;;;;;6.07;3.40;;;;;;;4.95;85.20;100176.22;5025431;28;20234;-83
2022/01/02 03:00:13;;;;;;;4.07;3.20;;;;;;;4.92;84.91;100171.25;4974544;28;20227;-83
2022/01/02 03:02:40;;;;;;;4.50;2.97;;;;;;;4.82;84.92;100163.50;4991798;28;20235;-83
2022/01/02 03:05:08;;;;;;;3.70;3.20;;;;;;;4.89;85.06;100163.66;4992226;28;20229;-83
2022/01/02 03:07:35;;;;;;;3.03;2.73;;;;;;;4.82;85.24;100160.00;5008250;28;20199;-83
2022/01/02 03:10:10;;;;;;;3.80;2.90;;;;;;;4.86;84.95;100177.25;5006964;28;20597;-82
2022/01/02 03:12:38;;;;;;;4.20;2.83;;;;;;;4.77;85.59;100149.06;5025133;28;20549;-83
2022/01/02 03:15:07;;;;;;;3.00;2.70;;;;;;;4.78;85.10;100132.97;4991269;28;20234;-83
2022/01/02 03:17:35;;;;;;;4.10;3.07;;;;;;;4.76;85.06;100136.78;5025040;28;20206;-83
2022/01/02 03:20:05;;;;;;;3.43;2.90;;;;;;;4.76;85.33;100139.44;4991856;28;20233;-83
2022/01/02 03:22:32;;;;;;;3.20;2.90;;;;;;;4.72;85.62;100130.97;4992827;28;20241;-83
2022/01/02 03:24:59;;;;;;;3.93;3.10;;;;;;;4.71;85.99;100129.31;4976142;28;20249;-83
2022/01/02 03:27:26;;;;;;;2.70;2.50;;;;;;;4.73;85.88;100129.16;4975161;23;20224;-83
2022/01/02 03:29:54;;;;;;;5.27;3.20;;;;;;;4.60;85.91;100111.13;4985848;28;20251;-83
2022/01/02 03:32:21;;;;;;;3.03;2.70;;;;;;;4.67;85.78;100121.88;4984933;28;20244;-83
2022/01/02 03:34:50;;;;;;;3.13;2.40;;;;;;;4.68;85.83;100126.19;4968946;28;20228;-83
2022/01/02 03:37:19;;;;;;;4.40;2.63;;;;;;;4.67;86.14;100124.53;4986073;28;20236;-83
2022/01/02 03:39:47;;;;;;;4.00;2.97;;;;;;;4.65;86.21;100111.44;4986297;28;20220;-83
2022/01/02 03:42:14;;;;;;;2.93;2.60;;;;;;;4.64;86.33;100107.13;4969295;28;20224;-83
2022/01/02 03:44:41;;;;;;;5.50;3.00;;;;;;;4.65;86.01;100095.53;4969375;28;20567;-83
2022/01/02 03:47:07;;;;;;;3.13;2.83;;;;;;;4.64;86.28;100088.53;5027717;23;20310;-83
2022/01/02 03:49:36;;;;;;;2.97;2.77;;;;;;;4.65;85.86;100079.59;4990743;28;20226;-83
2022/01/02 03:52:05;;;;;;;3.47;2.83;;;;;;;4.59;86.02;100071.47;4991572;28;20321;-83
2022/01/02 03:54:32;;;;;;;3.30;2.80;;;;;;;4.53;85.50;100065.00;5006647;28;20234;-83
2022/01/02 03:56:59;;;;;;;3.13;2.83;;;;;;;4.51;85.82;100063.53;4991290;28;20309;-83
2022/01/02 03:59:26;;;;;;;3.67;2.70;;;;;;;4.49;85.94;100063.69;4990443;28;20230;-83
2022/01/02 04:01:55;;;;;;;3.93;2.73;;;;;;;4.51;85.42;100069.69;4975996;28;20230;-83
2022/01/02 04:04:24;;;;;;;3.33;3.03;;;;;;;4.37;85.77;100059.75;5008446;28;20246;-83
2022/01/02 04:06:52;;;;;;;3.77;2.93;;;;;;;4.38;85.50;100080.00;5024791;28;20242;-82
2022/01/02 04:09:18;;;;;;;4.63;3.60;;;;;;;4.31;85.67;100073.69;4992056;28;20183;-82
2022/01/02 04:11:48;;;;;;;3.70;3.00;;;;;;;4.26;85.92;100073.38;4991309;28;20245;-83
2022/01/02 04:14:17;;;;;;;4.13;2.80;;;;;;;4.32;86.26;100083.31;5023869;28;20226;-83
2022/01/02 04:16:45;;;;;;;3.33;2.93;;;;;;;4.29;86.15;100067.75;4989970;28;20630;-83
2022/01/02 04:19:17;;;;;;;3.87;2.73;;;;;;;4.25;85.93;100055.78;4992001;28;20227;-83
2022/01/02 04:21:45;;;;;;;3.30;2.77;;;;;;;4.21;86.25;100051.81;4990884;28;20238;-83
2022/01/02 04:24:13;;;;;;;3.13;2.83;;;;;;;4.20;86.50;100051.00;4991278;28;20254;-83
2022/01/02 04:26:40;;;;;;;3.20;2.90;;;;;;;4.18;86.49;100049.53;4990761;28;20230;-83
2022/01/02 04:29:06;;;;;;;4.10;2.87;;;;;;;4.26;86.14;100060.94;4974203;28;20223;-83
2022/01/02 04:31:34;;;;;;;3.10;2.63;;;;;;;4.24;87.00;100048.84;4991396;28;20246;-83
2022/01/02 04:34:01;;;;;;;3.07;2.53;;;;;;;4.23;86.54;100055.97;4989841;28;20242;-83
2022/01/02 04:36:28;;;;;;;3.13;2.60;;;;;;;4.16;86.53;100044.38;5008135;28;20310;-82
2022/01/02 04:38:56;;;;;;;4.00;2.83;;;;;;;4.08;86.77;100031.13;5006490;28;20254;-83
2022/01/02 04:41:23;;;;;;;3.30;2.80;;;;;;;4.15;86.93;100034.78;4976012;28;20222;-83
2022/01/02 04:43:52;;;;;;;3.00;2.70;;;;;;;4.09;86.68;100030.16;5025758;28;20235;-83
2022/01/02 04:46:21;;;;;;;3.10;2.80;;;;;;;4.11;86.71;100027.31;5012797;28;20301;-83
2022/01/02 04:48:48;;;;;;;3.63;3.00;;;;;;;4.06;87.11;100021.72;5006434;28;20230;-82
2022/01/02 04:51:15;;;;;;;2.60;2.40;;;;;;;3.97;86.89;100018.22;5007893;28;20253;-83
2022/01/02 04:53:47;;;;;;;3.30;2.53;;;;;;;3.99;87.30;100019.72;4992554;28;20270;-82
2022/01/02 04:56:19;;;;;;;3.33;2.70;;;;;;;3.99;87.30;100017.06;5009194;28;20529;-83
2022/01/02 04:58:47;;;;;;;3.50;2.60;;;;;;;4.01;87.18;100024.03;4992243;28;20638;-83
2022/01/02 05:01:16;;;;;;;3.83;2.77;;;;;;;3.92;87.59;100002.81;5023441;28;20219;-83
2022/01/02 05:03:45;;;;;;;3.00;2.70;;;;;;;3.91;87.21;100005.66;5006296;28;20231;-83
2022/01/02 05:06:12;;;;;;;3.63;3.00;;;;;;;3.85;87.16;99995.72;4981457;28;20231;-82
2022/01/02 05:08:43;;;;;;;3.53;2.83;;;;;;;3.83;87.54;99995.88;5006858;28;20287;-83
2022/01/02 05:11:13;;;;;;;3.30;2.93;;;;;;;3.88;87.37;99996.19;4991668;28;20235;-83
2022/01/02 05:13:43;;;;;;;3.20;2.90;;;;;;;3.83;87.46;99993.22;5008277;28;20190;-83
2022/01/02 05:16:12;;;;;;;4.60;3.10;;;;;;;3.83;87.42;99990.56;5007221;28;20227;-83
2022/01/02 05:18:41;;;;;;;3.97;2.90;;;;;;;3.83;87.51;99997.69;5022353;28;20230;-83
2022/01/02 05:21:09;;;;;;;3.10;2.80;;;;;;;3.71;87.47;99999.03;5007128;28;20226;-82
2022/01/02 05:23:42;;;;;;;3.23;2.93;;;;;;;3.70;87.25;99992.06;5023100;28;20226;-83
2022/01/02 05:26:10;;;;;;;2.70;2.50;;;;;;;3.63;87.44;99983.16;5024223;28;20222;-82
2022/01/02 05:28:37;;;;;;;3.33;2.83;;;;;;;3.64;87.48;99979.50;5022743;28;20572;-83
2022/01/02 05:31:06;;;;;;;3.77;2.70;;;;;;;3.60;87.34;99967.56;5022276;28;20237;-83
2022/01/02 05:33:34;;;;;;;13.33;9.30;;;;;;;3.61;87.74;99980.66;5006200;28;20306;-82
2022/01/02 05:36:02;;;;;;;111.77;53.57;;;;;;;3.54;87.41;99974.38;5021637;28;20234;-83
2022/01/02 05:38:30;;;;;;;65.30;34.20;;;;;;;3.54;87.23;99969.09;5005917;28;20227;-83
2022/01/02 05:41:00;;;;;;;10.83;7.00;;;;;;;3.41;87.35;99953.66;5022641;28;20191;-83
2022/01/02 05:43:29;;;;;;;3.70;3.23;;;;;;;3.37;86.98;99962.09;5023086;28;20528;-82
2022/01/02 05:46:06;;;;;;;3.00;2.70;;;;;;;3.38;87.12;99955.81;5022760;28;20238;-82
2022/01/02 05:48:36;;;;;;;3.27;2.97;;;;;;;3.41;87.39;99960.78;5007692;28;20222;-81
2022/01/02 05:51:03;;;;;;;5.83;4.60;;;;;;;3.29;87.31;99940.94;4993021;28;20201;-83
2022/01/02 05:53:30;;;;;;;7.73;6.10;;;;;;;3.30;87.47;99955.81;5009175;28;20650;-83
2022/01/02 05:55:58;;;;;;;4.87;3.60;;;;;;;3.24;87.57;99946.72;4993676;28;20230;-82
2022/01/02 05:58:25;;;;;;;6.63;4.70;;;;;;;3.28;87.64;99950.69;4982651;23;20231;-83
2022/01/02 06:00:52;;;;;;;25.50;16.73;;;;;;;3.22;87.60;99927.50;4989986;28;20231;-83
2022/01/02 06:03:20;;;;;;;9.50;5.57;;;;;;;3.37;88.21;99931.16;4958190;28;20283;-83
2022/01/02 06:05:47;;;;;;;46.13;26.97;;;;;;;3.32;88.05;99912.28;4989500;28;20230;-83
2022/01/02 06:08:15;;;;;;;15.70;9.90;;;;;;;3.40;88.63;99911.47;4993426;28;20654;-82
2022/01/02 06:10:44;;;;;;;6.50;4.90;;;;;;;3.39;88.00;99910.63;4962522;28;20231;-83
2022/01/02 06:13:14;;;;;;;4.53;3.70;;;;;;;3.44;87.85;99905.66;5000150;23;20295;-83
2022/01/02 06:15:43;;;;;;;4.83;3.80;;;;;;;3.36;88.08;99908.31;4994645;28;20219;-82
2022/01/02 06:18:13;;;;;;;3.83;3.43;;;;;;;3.30;88.30;99906.34;5014463;23;20242;-82
2022/01/02 06:20:43;;;;;;;3.90;3.43;;;;;;;3.32;88.49;99922.03;4990685;23;20247;-82
2022/01/02 06:23:33;;;;;;;3.50;2.97;;;;;;;3.32;88.47;99919.41;4991859;28;20193;-82
2022/01/02 06:26:10;;;;;;;5.03;3.33;;;;;;;3.36;88.69;99937.44;5029524;23;20239;-82
2022/01/02 06:28:53;;;;;;;3.17;2.70;;;;;;;3.27;88.32;99930.50;5025418;23;20227;-83
2022/01/02 06:31:26;;;;;;;3.57;3.27;;;;;;;3.21;88.85;99917.94;4999767;23;20239;-82
2022/01/02 06:34:02;;;;;;;3.37;3.07;;;;;;;3.26;88.35;99917.44;5011176;28;20319;-82
2022/01/02 06:36:45;;;;;;;4.37;3.23;;;;;;;3.19;88.21;99913.78;5005007;23;20295;-82
2022/01/02 06:39:16;;;;;;;3.50;3.20;;;;;;;3.17;88.74;99911.31;4978580;28;20231;-82
2022/01/02 06:41:54;;;;;;;5.90;4.43;;;;;;;3.11;88.58;99914.63;5009818;28;20288;-82
2022/01/02 06:44:22;;;;;;;6.83;4.73;;;;;;;2.98;88.93;99903.69;5009573;28;20251;-82
2022/01/02 06:46:53;;;;;;;4.97;4.47;;;;;;;3.00;89.30;99907.81;4993153;28;20322;-82
2022/01/02 06:49:36;;;;;;;5.83;4.53;;;;;;;3.01;89.15;99921.88;5009639;28;20230;-82
2022/01/02 06:52:08;;;;;;;4.40;3.97;;;;;;;3.07;89.03;99921.22;5009625;28;20266;-82
2022/01/02 06:54:40;;;;;;;6.60;4.93;;;;;;;3.07;89.35;99908.81;4992350;28;20690;-82
2022/01/02 06:57:09;;;;;;;8.87;6.80;;;;;;;3.02;89.21;99876.72;4992761;28;20207;-82
2022/01/02 06:59:36;;;;;;;12.13;9.47;;;;;;;3.17;88.68;99898.06;5007200;23;20237;-82
2022/01/02 07:02:09;;;;;;;6.30;5.70;;;;;;;3.10;88.71;99903.19;4978974;28;20218;-82
2022/01/02 07:04:39;;;;;;;4.17;3.67;;;;;;;3.22;88.53;99924.06;4993657;28;20203;-82
2022/01/02 07:07:13;;;;;;;4.90;3.77;;;;;;;3.21;89.02;99919.75;4998934;23;20226;-82
2022/01/02 07:09:40;;;;;;;4.37;3.60;;;;;;;3.21;87.84;99930.34;4969266;28;20242;-82
2022/01/02 07:12:09;;;;;;;4.57;3.30;;;;;;;3.11;88.57;99904.03;4944918;28;20666;-83
2022/01/02 07:14:39;;;;;;;3.90;3.40;;;;;;;3.08;88.00;99889.28;4988411;28;20250;-83
2022/01/02 07:17:07;;;;;;;4.33;3.40;;;;;;;3.15;88.24;99900.06;4972616;28;20235;-83
2022/01/02 07:19:35;;;;;;;3.60;3.30;;;;;;;3.13;88.63;99903.88;4990190;28;20294;-83
2022/01/02 07:22:05;;;;;;;4.30;3.70;;;;;;;3.19;88.58;99905.84;4973386;28;20323;-82
2022/01/02 07:24:39;;;;;;;4.63;3.40;;;;;;;3.27;88.09;99911.94;4990042;28;20270;-83
2022/01/02 07:27:09;;;;;;;4.03;3.57;;;;;;;3.23;88.36;99902.69;5006340;28;20242;-83
2022/01/02 07:29:36;;;;;;;3.67;3.33;;;;;;;3.26;87.88;99899.72;4973604;28;20254;-82
2022/01/02 07:32:05;;;;;;;5.70;3.60;;;;;;;3.35;87.71;99914.63;4956950;28;20231;-82
2022/01/02 07:34:32;;;;;;;4.43;3.80;;;;;;;3.37;87.91;99909.13;4988504;28;20557;-83
2022/01/02 07:36:58;;;;;;;3.77;3.37;;;;;;;3.35;88.12;99898.72;4989881;28;20227;-82
2022/01/02 07:39:26;;;;;;;4.30;3.10;;;;;;;3.35;88.29;99892.59;4956434;28;20254;-83
2022/01/02 07:41:54;;;;;;;4.90;3.30;;;;;;;3.44;88.02;99897.72;4973111;28;20231;-82
2022/01/02 07:44:27;;;;;;;4.17;3.13;;;;;;;3.55;88.30;99900.00;4974021;28;20227;-83
2022/01/02 07:46:57;;;;;;;5.07;4.33;;;;;;;3.60;87.82;99888.91;4980303;23;20581;-82
2022/01/02 07:49:24;;;;;;;4.87;4.00;;;;;;;3.61;87.83;99873.84;4973227;28;20235;-83
2022/01/02 07:51:58;;;;;;;4.90;4.13;;;;;;;3.77;87.73;99876.47;4989270;28;20227;-82
2022/01/02 07:54:29;;;;;;;4.93;3.93;;;;;;;3.76;87.58;99886.25;4990083;28;20242;-83
2022/01/02 07:56:56;;;;;;;4.93;3.80;;;;;;;3.82;87.33;99893.53;4989614;28;20223;-83
2022/01/02 07:59:28;;;;;;;3.83;3.27;;;;;;;3.88;86.99;99882.22;4985363;28;20231;-82
2022/01/02 08:02:08;;;;;;;5.13;3.40;;;;;;;3.92;87.05;99878.22;5011096;23;20246;31
2022/01/02 08:04:38;;;;;;;3.33;3.03;;;;;;;3.97;87.05;99869.75;4921941;23;20241;-83
2022/01/02 08:07:05;;;;;;;3.17;2.87;;;;;;;3.98;86.83;99858.16;4972146;28;20281;-83
2022/01/02 08:09:38;;;;;;;3.60;3.30;;;;;;;4.04;86.77;99862.78;5005280;28;20227;-83
2022/01/02 08:12:08;;;;;;;3.80;3.50;;;;;;;4.08;86.68;99863.25;4972047;28;20235;-83
2022/01/02 08:14:35;;;;;;;3.77;3.37;;;;;;;4.13;86.61;99851.13;4955711;28;20223;-83
2022/01/02 08:17:03;;;;;;;3.93;3.20;;;;;;;4.14;86.11;99858.09;4987493;28;20259;-82
2022/01/02 08:19:30;;;;;;;6.03;4.40;;;;;;;4.18;86.05;99850.63;4968597;28;20326;-83
2022/01/02 08:21:59;;;;;;;4.30;3.90;;;;;;;4.20;86.12;99851.28;4987358;28;20235;-82
2022/01/02 08:24:26;;;;;;;5.20;3.60;;;;;;;4.20;85.72;99845.97;4970333;28;20251;-82
2022/01/02 08:26:54;;;;;;;4.03;3.63;;;;;;;4.26;86.06;99845.28;4988534;28;20226;-82
2022/01/02 08:29:23;;;;;;;3.60;3.30;;;;;;;4.30;85.55;99842.09;4971298;28;20278;-83
2022/01/02 08:31:49;;;;;;;6.40;3.50;;;;;;;4.41;85.72;99849.66;5005941;28;20262;-83
2022/01/02 08:34:18;;;;;;;5.67;3.33;;;;;;;4.57;84.67;99859.38;4971194;28;20235;-83
2022/01/02 08:36:47;;;;;;;3.50;3.20;;;;;;;4.66;84.50;99857.50;4970423;28;20281;-82
2022/01/02 08:39:15;;;;;;;3.50;3.20;;;;;;;4.68;84.30;99845.69;4971605;28;20223;-83
2022/01/02 08:41:44;;;;;;;3.47;3.17;;;;;;;4.84;84.52;99856.19;4970951;28;20259;-82
2022/01/02 08:44:11;;;;;;;3.37;2.90;;;;;;;4.95;84.26;99854.94;4986685;28;20239;-82
2022/01/02 08:46:38;;;;;;;3.33;3.00;;;;;;;5.00;83.80;99835.81;4986724;28;20227;-82
2022/01/02 08:49:05;;;;;;;3.40;3.10;;;;;;;5.16;83.47;99823.22;5002848;28;20231;-83
2022/01/02 08:51:31;;;;;;;4.27;3.67;;;;;;;5.31;83.11;99825.91;4971410;28;20246;-82
2022/01/02 08:53:58;;;;;;;5.27;4.13;;;;;;;5.45;82.93;99827.78;4990504;23;20222;-82
2022/01/02 08:56:25;;;;;;;5.47;3.57;;;;;;;5.57;82.84;99818.31;5007526;28;20630;-83
2022/01/02 08:59:08;;;;;;;5.40;4.07;;;;;;;5.70;82.46;99817.69;4980458;23;20231;-83
2022/01/02 09:01:37;;;;;;;4.30;3.80;;;;;;;5.86;81.71;99814.84;4969125;28;20248;-83
2022/01/02 09:04:04;;;;;;;5.23;4.00;;;;;;;6.01;81.52;99806.88;4968929;28;20291;-83
2022/01/02 09:06:32;;;;;;;4.10;3.60;;;;;;;6.13;81.55;99811.53;4953058;28;20235;-83
2022/01/02 09:08:59;;;;;;;3.80;3.30;;;;;;;6.24;80.97;99810.22;4937930;28;20236;-82
2022/01/02 09:11:27;;;;;;;3.67;3.10;;;;;;;6.32;81.15;99812.78;4970101;28;20652;-82
2022/01/02 09:13:54;;;;;;;4.07;3.50;;;;;;;6.35;80.82;99809.72;4970596;28;20220;-83
2022/01/02 09:16:24;;;;;;;3.73;3.30;;;;;;;6.44;80.56;99821.09;4993532;23;20254;-81
2022/01/02 09:18:52;;;;;;;4.27;3.20;;;;;;;6.45;79.91;99810.25;5155932;23;20619;-81
2022/01/02 09:21:34;;;;;;;4.17;3.57;;;;;;;6.56;79.65;99812.44;5336638;23;20244;-80
2022/01/02 09:24:17;;;;;;;3.60;3.30;;;;;;;6.70;79.85;99817.88;5499962;23;20259;-80
2022/01/02 09:27:25;;;;;;;5.07;4.13;;;;;;;6.78;79.26;99807.09;5150323;23;20214;-82
2022/01/02 09:30:16;;;;;;;4.57;4.17;;;;;;;6.83;80.28;99815.34;5039545;23;20237;-83
2022/01/02 09:36:28;;;;;;;4.37;3.97;;;;;;;6.87;80.10;99821.94;5108010;23;20247;-82
2022/01/02 09:38:58;;;;;;;5.23;3.63;;;;;;;6.99;80.17;99821.25;5020083;23;20237;-81
2022/01/02 09:41:27;;;;;;;5.23;3.80;;;;;;;7.04;80.87;99816.16;4934674;29;20209;-82
2022/01/02 09:43:54;;;;;;;5.63;4.67;;;;;;;7.03;80.40;99808.34;4951521;29;20241;-83
2022/01/02 09:46:27;;;;;;;4.97;4.10;;;;;;;6.90;80.58;99802.91;4950468;29;20248;-82
2022/01/02 09:48:56;;;;;;;4.30;3.80;;;;;;;7.00;79.70;99803.38;4968266;29;20236;-82
2022/01/02 09:51:25;;;;;;;4.63;3.73;;;;;;;7.04;79.40;99797.50;4950408;29;20260;-82
2022/01/02 09:53:54;;;;;;;4.10;3.70;;;;;;;7.17;79.88;99793.28;4933693;23;20237;-82
2022/01/02 09:56:23;;;;;;;6.13;3.50;;;;;;;7.25;79.43;99787.81;4920926;29;20273;-82
2022/01/02 09:58:55;;;;;;;4.67;4.23;;;;;;;7.33;79.15;99795.66;4924121;29;20240;-82
2022/01/02 10:01:24;;;;;;;4.63;3.93;;;;;;;7.37;78.84;99796.94;4918904;29;20234;-82
2022/01/02 10:03:57;;;;;;;4.00;3.60;;;;;;;7.42;79.03;99792.63;4929682;29;20194;-82
2022/01/02 10:06:38;;;;;;;5.07;3.90;;;;;;;7.55;78.39;99778.59;4946037;23;20234;-82
2022/01/02 10:09:28;;;;;;;4.60;3.97;;;;;;;7.68;77.67;99773.31;4942104;29;20229;-82
2022/01/02 10:12:35;;;;;;;4.83;4.13;;;;;;;7.75;77.27;99776.00;4907774;29;20276;-82
2022/01/02 10:15:08;;;;;;;4.80;4.30;;;;;;;7.90;77.33;99768.69;4955390;23;20236;-82
2022/01/02 10:17:57;;;;;;;4.87;4.47;;;;;;;8.10;76.58;99766.94;4959490;29;20193;-82
2022/01/02 10:20:36;;;;;;;4.80;4.23;;;;;;;8.21;76.01;99760.22;4964475;29;20243;-82
2022/01/02 10:23:10;;;;;;;5.23;4.10;;;;;;;8.33;75.69;99748.75;4961122;23;20225;-82
2022/01/02 10:26:00;;;;;;;4.23;3.83;;;;;;;8.40;74.77;99736.22;4939841;29;20226;-82
2022/01/02 10:28:38;;;;;;;4.50;4.10;;;;;;;8.57;74.00;99741.19;4967276;29;20258;-82
2022/01/02 10:31:30;;;;;;;4.47;3.93;;;;;;;8.68;74.84;99740.56;4962659;29;20197;-82
2022/01/02 10:34:32;;;;;;;5.57;4.10;;;;;;;8.61;74.90;99740.59;4940084;23;20222;31
2022/01/02 10:37:43;;;;;;;4.50;3.83;;;;;;;8.80;74.08;99736.28;4920939;23;20253;-82
2022/01/02 10:40:41;;;;;;;4.10;3.70;;;;;;;8.69;75.14;99743.06;4964859;28;20226;-81
2022/01/02 10:43:30;;;;;;;4.27;3.63;;;;;;;8.68;75.37;99737.91;4957546;29;20236;-82
2022/01/02 10:46:22;;;;;;;4.30;3.90;;;;;;;8.68;74.44;99740.56;4950357;29;20321;-82
2022/01/02 10:49:09;;;;;;;3.80;3.23;;;;;;;8.63;75.78;99735.84;4960675;29;20246;-81
2022/01/02 10:51:36;;;;;;;4.00;3.30;;;;;;;8.67;75.55;99725.59;4960364;29;20207;-82
2022/01/02 10:54:04;;;;;;;4.00;3.60;;;;;;;8.68;75.38;99733.38;4956090;28;20527;-82
2022/01/02 10:56:32;;;;;;;4.87;4.47;;;;;;;8.79;75.85;99732.78;4960830;29;20208;-82
2022/01/02 10:58:59;;;;;;;4.30;3.90;;;;;;;8.78;76.22;99738.31;4958614;29;20281;-81
2022/01/02 11:01:26;;;;;;;4.87;4.03;;;;;;;8.87;75.73;99731.75;4979385;23;20231;-81
2022/01/02 11:04:15;;;;;;;3.90;3.50;;;;;;;8.94;74.85;99732.59;4929691;28;20220;-82
2022/01/02 11:06:43;;;;;;;5.43;4.40;;;;;;;8.93;75.11;99720.25;4958625;29;20221;-82
2022/01/02 11:09:11;;;;;;;4.93;4.37;;;;;;;9.16;75.90;99723.31;4967422;28;20247;-82
2022/01/02 11:11:38;;;;;;;5.07;4.57;;;;;;;9.22;75.91;99714.47;4941176;28;20233;-82
2022/01/02 11:14:05;;;;;;;4.80;4.40;;;;;;;9.16;76.11;99709.94;4953259;28;20238;-82
2022/01/02 11:16:34;;;;;;;4.60;4.13;;;;;;;9.05;75.41;99705.22;4971804;28;20684;-81
2022/01/02 11:19:01;;;;;;;5.67;4.37;;;;;;;9.14;75.17;99692.47;4953964;29;20232;-82
2022/01/02 11:21:30;;;;;;;5.70;5.20;;;;;;;9.22;75.42;99690.41;4951450;29;20623;-81
2022/01/02 11:24:21;;;;;;;5.67;4.87;;;;;;;9.31;75.54;99691.00;4950173;29;20263;-82
2022/01/02 11:27:22;;;;;;;6.23;5.63;;;;;;;9.36;76.10;99693.03;4949755;29;20250;-82
2022/01/02 11:29:53;;;;;;;5.67;5.13;;;;;;;9.30;76.51;99673.28;4959265;23;20225;-82
2022/01/02 11:33:02;;;;;;;7.67;5.60;;;;;;;9.45;76.55;99678.41;4924740;28;20811;-82
2022/01/02 11:35:32;;;;;;;6.30;5.57;;;;;;;9.45;75.88;99671.19;4951583;29;20324;-82
2022/01/02 11:38:03;;;;;;;6.20;5.60;;;;;;;9.58;74.41;99676.50;4936012;28;20256;-81
2022/01/02 11:40:52;;;;;;;6.17;5.57;;;;;;;9.56;75.06;99678.56;4967225;29;20232;-82
2022/01/02 11:43:49;;;;;;;6.53;5.83;;;;;;;9.66;75.13;99675.41;4967916;28;20216;-82
2022/01/02 11:46:19;;;;;;;6.80;6.10;;;;;;;9.64;75.72;99669.47;4958009;23;20229;-82
2022/01/02 11:49:13;;;;;;;6.03;5.47;;;;;;;9.73;75.14;99670.88;4932825;29;20233;-82
2022/01/02 11:51:56;;;;;;;9.00;6.00;;;;;;;9.79;75.03;99669.22;4949319;23;20232;-82
2022/01/02 11:54:43;;;;;;;6.40;5.80;;;;;;;9.84;75.19;99664.03;4970441;29;20241;-81
2022/01/02 11:57:14;;;;;;;6.70;6.00;;;;;;;10.02;74.42;99656.94;4980260;28;20228;-82
2022/01/02 11:59:45;;;;;;;6.73;6.03;;;;;;;10.04;74.54;99660.19;4973151;28;20228;-82
2022/01/02 12:02:12;;;;;;;6.53;5.70;;;;;;;10.08;74.57;99656.06;4974009;23;20658;-82
2022/01/02 12:05:11;;;;;;;6.20;5.60;;;;;;;10.13;73.53;99658.09;4926127;29;20276;-83
2022/01/02 12:07:52;;;;;;;7.00;5.80;;;;;;;10.30;72.40;99658.44;4945872;23;20236;-82
2022/01/02 12:10:41;;;;;;;6.23;5.63;;;;;;;10.25;72.16;99650.22;4960609;28;20220;-82